LXS weather

Limnos Airport
Limnos Island, Lesbos, Greece

Public forecast

Using degrees Celsius for public forecast. Weather courtesy of forecast.io.

METAR (pilot weather report)

Retrieved 2018/06/21 01:20 UTC (26 minutes ago):

LGLM 210120Z 03007KT CAVOK 23/17 Q1014

TAF (pilot weather forecast)

Forecast is more than 12 hours old.

Retrieved 2012/09/21 03:06 UTC (6 years ago):

TAF LGLM 210200Z 2103/2115 31015G25KT 9999 SCT020 SCT070 PROB30 TEMPO 2103/2106 6000 SHRA SCT015 FEW018CB BKN030 BECMG 2105/2107 06015KT